createdAt,value
2022-12-03T00:00:47.796Z,101342.30
2022-12-03T00:03:24.552Z,101341.05
2022-12-03T00:05:59.628Z,101344.35
2022-12-03T00:08:31.017Z,101343.27
2022-12-03T00:11:02.348Z,101342.27
2022-12-03T00:13:33.899Z,101336.84
2022-12-03T00:16:05.544Z,101339.34
2022-12-03T00:18:37.291Z,101335.11
2022-12-03T00:21:09.153Z,101332.49
2022-12-03T00:23:42.426Z,101333.20
2022-12-03T00:26:14.009Z,101335.33
2022-12-03T00:28:45.451Z,101333.55
2022-12-03T00:31:21.674Z,101331.17
2022-12-03T00:33:53.780Z,101330.09
2022-12-03T00:36:25.415Z,101330.65
2022-12-03T00:38:56.757Z,101327.17
2022-12-03T00:41:28.128Z,101324.54
2022-12-03T00:43:59.659Z,101329.50
2022-12-03T00:46:31.091Z,101325.67
2022-12-03T00:49:02.583Z,101328.04
2022-12-03T00:51:34.202Z,101327.86
2022-12-03T00:54:05.682Z,101329.71
2022-12-03T00:56:37.096Z,101325.72
2022-12-03T00:59:08.448Z,101324.64
2022-12-03T01:01:39.921Z,101326.13
2022-12-03T01:04:11.350Z,101325.13
2022-12-03T01:06:43.046Z,101325.73
2022-12-03T01:09:14.472Z,101326.91
2022-12-03T01:11:45.825Z,101324.89
2022-12-03T01:14:19.530Z,101324.90
2022-12-03T01:16:51.475Z,101322.95
2022-12-03T01:19:23.027Z,101327.69
2022-12-03T01:21:56.070Z,101326.66
2022-12-03T01:24:27.498Z,101325.27
2022-12-03T01:26:59.292Z,101322.08
2022-12-03T01:29:30.772Z,101324.95
2022-12-03T01:32:19.804Z,101317.48
2022-12-03T01:34:53.099Z,101316.14
2022-12-03T01:37:27.114Z,101321.00
2022-12-03T01:39:58.678Z,101321.52
2022-12-03T01:42:32.837Z,101318.95
2022-12-03T01:45:05.336Z,101318.81
2022-12-03T01:47:39.517Z,101318.27
2022-12-03T01:50:17.201Z,101314.36
2022-12-03T01:52:49.255Z,101315.34
2022-12-03T01:55:22.809Z,101314.17
2022-12-03T01:57:57.408Z,101316.14
2022-12-03T02:00:32.213Z,101316.86
2022-12-03T02:03:09.229Z,101320.41
2022-12-03T02:05:41.637Z,101323.14
2022-12-03T02:08:30.418Z,101324.54
2022-12-03T02:11:05.099Z,101323.68
2022-12-03T02:13:36.943Z,101322.50
2022-12-03T02:16:09.198Z,101320.02
2022-12-03T02:18:40.932Z,101316.06
2022-12-03T02:21:21.229Z,101312.55
2022-12-03T02:24:01.744Z,101308.55
2022-12-03T02:26:33.350Z,101310.36
2022-12-03T02:29:05.483Z,101306.63
2022-12-03T02:31:37.026Z,101305.05
2022-12-03T02:34:10.494Z,101302.41
2022-12-03T02:36:42.677Z,101304.52
2022-12-03T02:39:14.416Z,101305.39
2022-12-03T02:42:03.430Z,101306.00
2022-12-03T02:44:34.695Z,101305.45
2022-12-03T02:47:06.745Z,101303.02
2022-12-03T02:49:38.283Z,101302.73
2022-12-03T02:52:09.738Z,101297.34
2022-12-03T02:54:41.754Z,101302.83
2022-12-03T02:57:13.385Z,101295.18
2022-12-03T02:59:46.611Z,101294.71
2022-12-03T03:02:18.317Z,101295.80
2022-12-03T03:04:50.102Z,101293.40
2022-12-03T03:07:21.552Z,101290.34
2022-12-03T03:09:52.935Z,101290.92
2022-12-03T03:12:24.949Z,101290.69
2022-12-03T03:14:56.528Z,101285.05
2022-12-03T03:17:28.150Z,101290.11
2022-12-03T03:19:59.750Z,101285.04
2022-12-03T03:22:38.347Z,101292.53
2022-12-03T03:25:13.820Z,101291.33
2022-12-03T03:27:46.208Z,101285.89
2022-12-03T03:30:18.062Z,101292.38
2022-12-03T03:32:50.072Z,101294.51
2022-12-03T03:35:21.687Z,101292.09
2022-12-03T03:37:53.823Z,101296.23
2022-12-03T03:40:25.417Z,101293.19
2022-12-03T03:42:57.795Z,101288.38
2022-12-03T03:45:29.887Z,101290.57
2022-12-03T03:48:02.659Z,101286.92
2022-12-03T03:50:35.224Z,101284.32
2022-12-03T03:53:07.804Z,101279.03
2022-12-03T03:55:39.655Z,101275.41
2022-12-03T03:58:11.503Z,101277.64
2022-12-03T04:00:43.652Z,101280.77
2022-12-03T04:03:15.427Z,101280.13
2022-12-03T04:05:47.308Z,101280.33
2022-12-03T04:08:18.867Z,101281.84
2022-12-03T04:11:07.900Z,101283.36
2022-12-03T04:13:39.416Z,101279.02
2022-12-03T04:16:11.437Z,101284.42
2022-12-03T04:18:46.114Z,101283.86
2022-12-03T04:21:51.857Z,101285.35
2022-12-03T04:24:23.202Z,101283.30
2022-12-03T04:27:12.078Z,101280.04
2022-12-03T04:29:48.034Z,101272.30
2022-12-03T04:32:49.438Z,101265.63
2022-12-03T04:35:40.239Z,101263.92
2022-12-03T04:38:11.833Z,101264.33
2022-12-03T04:41:04.423Z,101264.17
2022-12-03T04:43:56.961Z,101264.34
2022-12-03T04:46:28.519Z,101262.34
2022-12-03T04:49:00.351Z,101253.83
2022-12-03T04:51:31.993Z,101248.41
2022-12-03T04:54:03.526Z,101251.06
2022-12-03T04:56:34.909Z,101248.37
2022-12-03T04:59:10.035Z,101250.89
2022-12-03T05:01:44.838Z,101248.94
2022-12-03T05:04:16.982Z,101249.78
2022-12-03T05:06:48.955Z,101253.21
2022-12-03T05:09:20.692Z,101253.77
2022-12-03T05:11:52.231Z,101255.52
2022-12-03T05:14:23.854Z,101258.21
2022-12-03T05:16:55.621Z,101256.51
2022-12-03T05:19:47.347Z,101253.63
2022-12-03T05:22:18.921Z,101254.05
2022-12-03T05:24:50.524Z,101252.98
2022-12-03T05:27:24.253Z,101253.36
2022-12-03T05:29:56.240Z,101256.89
2022-12-03T05:32:27.922Z,101254.41
2022-12-03T05:34:59.294Z,101250.03
2022-12-03T05:37:30.731Z,101252.67
2022-12-03T05:40:02.167Z,101255.73
2022-12-03T05:42:50.795Z,101256.02
2022-12-03T05:45:22.149Z,101260.98
2022-12-03T05:47:54.014Z,101266.36
2022-12-03T05:50:28.420Z,101261.65
2022-12-03T05:53:00.336Z,101260.27
2022-12-03T05:55:32.770Z,101259.29
2022-12-03T05:58:04.652Z,101257.95
2022-12-03T06:00:42.903Z,101251.44
2022-12-03T06:03:14.672Z,101253.95
2022-12-03T06:05:46.254Z,101253.16
2022-12-03T06:08:17.762Z,101252.81
2022-12-03T06:10:49.288Z,101257.72
2022-12-03T06:13:20.836Z,101258.98
2022-12-03T06:15:52.312Z,101256.80
2022-12-03T06:18:23.737Z,101261.14
2022-12-03T06:20:55.176Z,101257.61
2022-12-03T06:23:26.576Z,101264.20
2022-12-03T06:25:58.073Z,101261.23
2022-12-03T06:28:30.897Z,101259.00
2022-12-03T06:31:02.282Z,101257.27
2022-12-03T06:33:34.451Z,101257.20
2022-12-03T06:36:06.072Z,101257.63
2022-12-03T06:38:37.857Z,101256.28
2022-12-03T06:41:09.321Z,101260.88
2022-12-03T06:43:40.929Z,101257.98
2022-12-03T06:46:12.473Z,101258.19
2022-12-03T06:48:44.744Z,101263.54
2022-12-03T06:51:16.179Z,101268.09
2022-12-03T06:53:49.235Z,101268.27
2022-12-03T06:56:22.555Z,101265.97
2022-12-03T06:58:54.384Z,101267.11
2022-12-03T07:01:26.319Z,101267.86
2022-12-03T07:03:58.078Z,101265.70
2022-12-03T07:06:29.630Z,101262.30
2022-12-03T07:09:01.134Z,101265.52
2022-12-03T07:11:32.847Z,101270.77
2022-12-03T07:14:07.349Z,101265.55
2022-12-03T07:16:39.601Z,101269.15
2022-12-03T07:19:12.655Z,101272.17
2022-12-03T07:21:45.848Z,101272.92
2022-12-03T07:24:17.792Z,101269.23
2022-12-03T07:26:49.257Z,101268.86
2022-12-03T07:29:21.101Z,101266.27
2022-12-03T07:31:52.656Z,101267.82
2022-12-03T07:34:24.164Z,101262.89
2022-12-03T07:36:56.867Z,101261.75
2022-12-03T07:39:28.384Z,101256.34
2022-12-03T07:42:00.053Z,101253.88
2022-12-03T07:44:32.261Z,101251.09
2022-12-03T07:47:07.101Z,101247.73
2022-12-03T07:49:38.814Z,101244.70
2022-12-03T07:52:10.218Z,101245.56
2022-12-03T07:54:41.743Z,101244.77
2022-12-03T07:57:13.304Z,101249.86
2022-12-03T07:59:45.033Z,101249.64
2022-12-03T08:02:21.357Z,101247.20
2022-12-03T08:04:53.455Z,101247.81
2022-12-03T08:07:25.847Z,101246.89
2022-12-03T08:09:58.779Z,101253.14
2022-12-03T08:12:40.451Z,101251.00
2022-12-03T08:15:18.524Z,101253.61
2022-12-03T08:17:56.414Z,101253.39
2022-12-03T08:20:31.565Z,101254.23
2022-12-03T08:23:05.845Z,101248.55
2022-12-03T08:25:37.402Z,101248.05
2022-12-03T08:28:15.616Z,101250.09
2022-12-03T08:30:51.631Z,101247.28
2022-12-03T08:33:29.080Z,101249.14
2022-12-03T08:36:03.360Z,101247.95
2022-12-03T08:38:35.489Z,101247.29
2022-12-03T08:41:36.968Z,101235.81
2022-12-03T08:44:27.490Z,101246.02
2022-12-03T08:47:08.840Z,101240.58
2022-12-03T08:49:40.778Z,101239.98
2022-12-03T08:52:20.778Z,101238.21
2022-12-03T08:54:56.801Z,101243.10
2022-12-03T08:57:31.500Z,101242.67
2022-12-03T09:00:15.877Z,101241.69
2022-12-03T09:02:50.968Z,101245.48
2022-12-03T09:05:24.344Z,101243.33
2022-12-03T09:07:56.019Z,101236.52
2022-12-03T09:10:27.649Z,101240.27
2022-12-03T09:12:59.062Z,101243.39
2022-12-03T09:15:30.440Z,101241.12
2022-12-03T09:18:01.882Z,101241.34
2022-12-03T09:20:33.162Z,101243.16
2022-12-03T09:23:05.028Z,101239.71
2022-12-03T09:25:36.533Z,101237.80
2022-12-03T09:28:09.004Z,101237.27
2022-12-03T09:30:40.652Z,101235.43
2022-12-03T09:33:12.331Z,101234.12
2022-12-03T09:35:43.881Z,101232.48
2022-12-03T09:38:15.849Z,101228.86
2022-12-03T09:40:48.174Z,101225.12
2022-12-03T09:43:20.237Z,101217.82
2022-12-03T09:45:53.033Z,101218.55
2022-12-03T09:48:25.505Z,101219.02
2022-12-03T09:50:56.995Z,101226.42
2022-12-03T09:53:30.356Z,101226.07
2022-12-03T09:56:03.226Z,101229.12
2022-12-03T09:58:35.117Z,101231.04
2022-12-03T10:01:14.198Z,101223.98
2022-12-03T10:03:49.995Z,101219.27
2022-12-03T10:06:24.083Z,101215.84
2022-12-03T10:09:00.460Z,101214.73
2022-12-03T10:11:33.290Z,101208.19
2022-12-03T10:14:05.051Z,101201.31
2022-12-03T10:16:37.406Z,101196.72
2022-12-03T10:19:11.893Z,101195.58
2022-12-03T10:21:43.531Z,101199.35
2022-12-03T10:24:29.944Z,101196.95
2022-12-03T10:27:04.451Z,101199.77
2022-12-03T10:29:37.609Z,101199.23
2022-12-03T10:32:12.133Z,101197.55
2022-12-03T10:34:46.032Z,101195.98
2022-12-03T10:37:20.659Z,101188.83
2022-12-03T10:40:01.106Z,101187.48
2022-12-03T10:42:34.747Z,101178.16
2022-12-03T10:45:18.427Z,101178.88
2022-12-03T10:48:07.367Z,101181.52
2022-12-03T10:50:38.890Z,101181.02
2022-12-03T10:53:12.276Z,101183.27
2022-12-03T10:55:45.997Z,101182.67
2022-12-03T10:58:28.590Z,101182.83
2022-12-03T11:01:03.701Z,101185.13
2022-12-03T11:03:38.640Z,101183.48
2022-12-03T11:06:15.461Z,101185.52
2022-12-03T11:08:56.524Z,101180.09
2022-12-03T11:11:31.342Z,101173.86
2022-12-03T11:14:04.317Z,101181.40
2022-12-03T11:17:09.350Z,101180.05
2022-12-03T11:19:53.935Z,101179.02
2022-12-03T11:22:44.135Z,101181.63
2022-12-03T11:25:50.788Z,101182.25
2022-12-03T11:28:54.754Z,101178.06
2022-12-03T11:31:41.640Z,101177.42
2022-12-03T11:34:50.452Z,101179.20
2022-12-03T11:37:31.755Z,101178.44
2022-12-03T11:40:20.387Z,101174.60
2022-12-03T11:42:52.302Z,101177.05
2022-12-03T11:45:30.660Z,101169.42
2022-12-03T11:48:11.540Z,101174.29
2022-12-03T11:50:44.999Z,101169.22
2022-12-03T11:53:24.573Z,101171.81
2022-12-03T11:56:09.364Z,101173.44
2022-12-03T11:58:45.680Z,101174.80
2022-12-03T12:01:17.762Z,101177.95
2022-12-03T12:03:50.924Z,101181.06
2022-12-03T12:06:23.411Z,101173.19
2022-12-03T12:09:04.223Z,101172.02
2022-12-03T12:11:36.805Z,101171.33
2022-12-03T12:14:09.506Z,101162.69
2022-12-03T12:16:52.492Z,101163.12
2022-12-03T12:19:36.519Z,101162.08
2022-12-03T12:22:30.332Z,101160.08
2022-12-03T12:25:03.146Z,101160.01
2022-12-03T12:27:39.802Z,101159.08
2022-12-03T12:30:15.966Z,101158.61
2022-12-03T12:32:52.263Z,101155.61
2022-12-03T12:35:25.191Z,101151.60
2022-12-03T12:38:00.120Z,101152.48
2022-12-03T12:40:34.200Z,101150.19
2022-12-03T12:43:21.883Z,101151.88
2022-12-03T12:45:57.267Z,101149.55
2022-12-03T12:48:32.723Z,101146.50
2022-12-03T12:51:10.609Z,101144.63
2022-12-03T12:53:43.235Z,101145.29
2022-12-03T12:56:24.796Z,101154.13
2022-12-03T12:58:58.607Z,101155.22
2022-12-03T13:01:33.239Z,101152.56
2022-12-03T13:04:03.733Z,101154.98
2022-12-03T13:06:36.384Z,101158.73
2022-12-03T13:09:18.383Z,101156.56
2022-12-03T13:11:53.723Z,101156.39
2022-12-03T13:14:26.457Z,101155.27
2022-12-03T13:17:01.492Z,101156.29
2022-12-03T13:19:46.627Z,101158.90
2022-12-03T13:22:22.477Z,101163.54
2022-12-03T13:24:56.420Z,101160.77
2022-12-03T13:27:30.916Z,101160.05
2022-12-03T13:30:08.544Z,101159.06
2022-12-03T13:32:43.056Z,101155.64
2022-12-03T13:35:24.357Z,101154.19
2022-12-03T13:37:56.243Z,101160.39
2022-12-03T13:40:32.331Z,101162.67
2022-12-03T13:43:12.046Z,101164.34
2022-12-03T13:45:45.313Z,101164.41
2022-12-03T13:48:23.570Z,101163.21
2022-12-03T13:50:55.782Z,101163.42
2022-12-03T13:53:28.968Z,101167.11
2022-12-03T13:56:04.861Z,101165.91
2022-12-03T13:58:36.246Z,101163.45
2022-12-03T14:01:07.988Z,101161.91
2022-12-03T14:03:39.901Z,101165.66
2022-12-03T14:06:11.695Z,101165.20
2022-12-03T14:08:43.326Z,101165.91
2022-12-03T14:11:35.865Z,101162.54
2022-12-03T14:14:07.315Z,101167.85
2022-12-03T14:16:38.810Z,101168.17
2022-12-03T14:19:10.318Z,101163.50
2022-12-03T14:21:41.927Z,101166.14
2022-12-03T14:24:13.390Z,101162.16
2022-12-03T14:26:44.840Z,101157.06
2022-12-03T14:29:16.353Z,101157.25
2022-12-03T14:31:47.704Z,101162.94
2022-12-03T14:34:19.191Z,101167.24
2022-12-03T14:36:50.729Z,101172.61
2022-12-03T14:39:22.245Z,101173.52
2022-12-03T14:42:11.359Z,101171.35
2022-12-03T14:44:43.120Z,101173.33
2022-12-03T14:47:16.505Z,101170.82
2022-12-03T14:49:48.529Z,101168.72
2022-12-03T14:52:20.627Z,101170.47
2022-12-03T14:54:52.957Z,101174.50
2022-12-03T14:57:25.093Z,101171.40
2022-12-03T14:59:57.067Z,101164.30
2022-12-03T15:02:30.621Z,101163.46
2022-12-03T15:05:03.106Z,101168.60
2022-12-03T15:07:34.931Z,101171.27
2022-12-03T15:10:07.832Z,101170.20
2022-12-03T15:12:39.446Z,101173.48
2022-12-03T15:15:13.875Z,101179.53
2022-12-03T15:17:46.461Z,101178.77
2022-12-03T15:20:18.685Z,101175.55
2022-12-03T15:22:50.812Z,101179.38
2022-12-03T15:25:25.838Z,101181.00
2022-12-03T15:27:58.027Z,101190.89
2022-12-03T15:30:30.292Z,101193.83
2022-12-03T15:33:02.328Z,101195.35
2022-12-03T15:35:34.630Z,101194.23
2022-12-03T15:38:07.015Z,101192.98
2022-12-03T15:40:39.592Z,101186.95
2022-12-03T15:43:12.036Z,101188.75
2022-12-03T15:45:43.584Z,101194.27
2022-12-03T15:48:16.279Z,101198.23
2022-12-03T15:50:48.450Z,101191.12
2022-12-03T15:53:20.503Z,101185.71
2022-12-03T15:55:52.370Z,101175.55
2022-12-03T15:58:25.215Z,101168.85
2022-12-03T16:00:57.361Z,101174.79
2022-12-03T16:03:29.793Z,101174.60
2022-12-03T16:06:02.658Z,101183.42
2022-12-03T16:08:35.519Z,101194.41
2022-12-03T16:11:08.316Z,101192.70
2022-12-03T16:13:40.276Z,101191.38
2022-12-03T16:16:12.075Z,101185.51
2022-12-03T16:18:44.123Z,101161.83
2022-12-03T16:21:16.341Z,101171.28
2022-12-03T16:23:48.732Z,101177.23
2022-12-03T16:26:20.315Z,101176.94
2022-12-03T16:28:52.228Z,101173.30
2022-12-03T16:31:24.462Z,101167.80
2022-12-03T16:33:56.337Z,101172.36
2022-12-03T16:36:28.813Z,101171.48
2022-12-03T16:39:01.926Z,101160.56
2022-12-03T16:41:34.058Z,101166.80
2022-12-03T16:44:05.840Z,101168.58
2022-12-03T16:46:38.504Z,101175.01
2022-12-03T16:49:11.968Z,101167.04
2022-12-03T16:51:44.563Z,101157.15
2022-12-03T16:54:16.399Z,101138.50
2022-12-03T16:56:48.543Z,101135.36
2022-12-03T16:59:21.122Z,101142.11
2022-12-03T17:01:53.161Z,101160.34
2022-12-03T17:04:24.773Z,101166.58
2022-12-03T17:06:58.482Z,101160.45
2022-12-03T17:09:30.633Z,101161.95
2022-12-03T17:12:02.297Z,101160.55
2022-12-03T17:14:35.161Z,101153.72
2022-12-03T17:17:08.098Z,101142.99
2022-12-03T17:19:40.948Z,101157.34
2022-12-03T17:22:14.426Z,101175.04
2022-12-03T17:24:47.136Z,101182.67
2022-12-03T17:27:19.102Z,101184.05
2022-12-03T17:29:52.767Z,101186.30
2022-12-03T17:32:24.770Z,101185.77
2022-12-03T17:34:58.437Z,101186.15
2022-12-03T17:37:33.124Z,101181.58
2022-12-03T17:40:05.681Z,101182.06
2022-12-03T17:42:37.884Z,101183.14
2022-12-03T17:45:12.703Z,101185.50
2022-12-03T17:47:43.263Z,101183.55
2022-12-03T17:50:16.144Z,101183.79
2022-12-03T17:52:48.518Z,101188.08
2022-12-03T17:55:28.152Z,101187.17
2022-12-03T17:58:03.045Z,101184.88
2022-12-03T18:00:36.530Z,101177.64
2022-12-03T18:03:09.109Z,101176.11
2022-12-03T18:05:42.636Z,101171.87
2022-12-03T18:08:15.725Z,101173.27
2022-12-03T18:10:48.901Z,101166.05
2022-12-03T18:13:21.122Z,101167.30
2022-12-03T18:15:53.817Z,101173.84
2022-12-03T18:18:27.041Z,101178.67
2022-12-03T18:21:02.477Z,101177.88
2022-12-03T18:23:36.026Z,101180.25
2022-12-03T18:26:09.080Z,101185.12
2022-12-03T18:28:42.036Z,101182.40
2022-12-03T18:31:17.503Z,101182.39
2022-12-03T18:33:50.177Z,101175.94
2022-12-03T18:36:24.597Z,101182.55
2022-12-03T18:39:01.899Z,101175.58
2022-12-03T18:41:35.542Z,101171.90
2022-12-03T18:44:14.037Z,101172.86
2022-12-03T18:46:54.708Z,101167.90
2022-12-03T18:49:28.031Z,101164.02
2022-12-03T18:52:01.653Z,101168.63
2022-12-03T18:54:33.922Z,101171.86
2022-12-03T18:57:06.793Z,101161.65
2022-12-03T18:59:39.892Z,101154.77
2022-12-03T19:05:17.460Z,101150.87
2022-12-03T19:07:52.009Z,101157.67
2022-12-03T19:10:26.244Z,101155.86
2022-12-03T19:13:00.277Z,101157.05
2022-12-03T19:15:34.133Z,101158.06
2022-12-03T19:18:08.610Z,101157.64
2022-12-03T19:20:46.263Z,101166.21
2022-12-03T19:23:19.499Z,101161.39
2022-12-03T19:26:02.395Z,101157.45
2022-12-03T19:28:35.057Z,101156.96
2022-12-03T19:31:11.144Z,101160.61
2022-12-03T19:33:45.141Z,101148.71
2022-12-03T19:36:26.074Z,101164.03
2022-12-03T19:39:01.312Z,101167.07
2022-12-03T19:41:38.447Z,101158.23
2022-12-03T19:44:14.311Z,101165.94
2022-12-03T19:46:47.323Z,101165.02
2022-12-03T19:49:21.745Z,101176.31
2022-12-03T19:51:54.194Z,101171.83
2022-12-03T19:54:27.094Z,101169.94
2022-12-03T19:56:59.429Z,101168.45
2022-12-03T19:59:31.911Z,101171.30
2022-12-03T20:02:05.545Z,101171.17
2022-12-03T20:04:37.887Z,101167.50
2022-12-03T20:07:11.594Z,101169.45
2022-12-03T20:09:44.207Z,101168.63
2022-12-03T20:12:16.937Z,101164.60
2022-12-03T20:14:51.136Z,101161.00
2022-12-03T20:17:23.553Z,101165.27
2022-12-03T20:19:55.761Z,101169.54
2022-12-03T20:22:28.278Z,101163.59
2022-12-03T20:25:00.365Z,101160.81
2022-12-03T20:27:32.406Z,101160.77
2022-12-03T20:30:04.730Z,101160.17
2022-12-03T20:32:42.097Z,101163.60
2022-12-03T20:35:18.482Z,101159.19
2022-12-03T20:37:51.037Z,101159.65
2022-12-03T20:40:23.946Z,101152.55
2022-12-03T20:42:57.024Z,101154.15
2022-12-03T20:45:29.443Z,101159.71
2022-12-03T20:48:01.936Z,101158.95
2022-12-03T20:50:33.914Z,101155.54
2022-12-03T20:53:23.630Z,101158.20
2022-12-03T20:56:00.956Z,101158.13
2022-12-03T20:58:34.858Z,101156.69
2022-12-03T21:01:15.966Z,101150.45
2022-12-03T21:03:51.046Z,101150.16
2022-12-03T21:06:24.626Z,101147.77
2022-12-03T21:08:59.918Z,101151.86
2022-12-03T21:11:34.375Z,101150.17
2022-12-03T21:14:06.640Z,101145.54
2022-12-03T21:19:33.009Z,101145.14
2022-12-03T21:22:04.555Z,101148.28
2022-12-03T21:24:36.716Z,101148.18
2022-12-03T21:27:08.785Z,101159.52
2022-12-03T21:29:41.801Z,101161.96
2022-12-03T21:32:14.288Z,101169.19
2022-12-03T21:34:46.231Z,101169.42
2022-12-03T21:37:17.715Z,101166.81
2022-12-03T21:39:49.737Z,101172.05
2022-12-03T21:42:35.756Z,101166.03
2022-12-03T21:45:12.509Z,101166.30
2022-12-03T21:47:48.093Z,101161.87
2022-12-03T21:50:20.596Z,101163.27
2022-12-03T21:52:53.029Z,101164.64
2022-12-03T21:55:24.684Z,101164.86
2022-12-03T21:57:56.691Z,101162.14
2022-12-03T22:00:32.578Z,101158.51
2022-12-03T22:03:04.747Z,101158.56
2022-12-03T22:05:39.143Z,101152.55
2022-12-03T22:08:16.559Z,101143.75
2022-12-03T22:10:48.608Z,101140.50
2022-12-03T22:13:20.637Z,101139.19
2022-12-03T22:15:52.328Z,101143.33
2022-12-03T22:18:24.388Z,101143.27
2022-12-03T22:20:56.209Z,101139.51
2022-12-03T22:23:28.534Z,101128.98
2022-12-03T22:26:05.259Z,101138.09
2022-12-03T22:28:37.610Z,101126.72
2022-12-03T22:31:11.467Z,101124.66
2022-12-03T22:33:43.776Z,101130.81
2022-12-03T22:36:21.044Z,101139.00
2022-12-03T22:38:53.345Z,101144.42
2022-12-03T22:41:24.884Z,101141.08
2022-12-03T22:43:56.905Z,101138.61
2022-12-03T22:46:29.021Z,101137.48
2022-12-03T22:49:06.819Z,101145.77
2022-12-03T22:51:39.600Z,101143.02
2022-12-03T22:54:12.058Z,101141.41
2022-12-03T22:56:43.833Z,101139.32
2022-12-03T22:59:15.383Z,101144.81
2022-12-03T23:01:47.888Z,101149.45
2022-12-03T23:04:19.829Z,101145.10
2022-12-03T23:06:51.988Z,101138.98
2022-12-03T23:09:23.855Z,101140.02
2022-12-03T23:11:55.659Z,101136.44
2022-12-03T23:14:27.785Z,101139.13
2022-12-03T23:17:00.868Z,101129.41
2022-12-03T23:19:32.360Z,101137.55
2022-12-03T23:22:04.144Z,101137.43
2022-12-03T23:24:35.589Z,101125.29
2022-12-03T23:27:08.208Z,101119.38
2022-12-03T23:29:39.652Z,101119.47
2022-12-03T23:32:13.461Z,101109.58
2022-12-03T23:34:45.194Z,101106.88
2022-12-03T23:37:17.061Z,101111.52
2022-12-03T23:39:52.199Z,101112.91
2022-12-03T23:42:23.983Z,101116.02
2022-12-03T23:44:55.379Z,101117.34
2022-12-03T23:47:26.770Z,101114.21
2022-12-03T23:49:58.300Z,101114.16
2022-12-03T23:52:29.704Z,101108.83
2022-12-03T23:55:01.072Z,101109.84
2022-12-03T23:57:32.529Z,101105.43
